sensor_id;sensor_type;location;lat;lon;timestamp;temperature;humidity
14411;DHT22;7290;50.854;4.354;2023-08-08T00:00:49;15.60;99.90
14411;DHT22;7290;50.854;4.354;2023-08-08T00:03:15;15.50;99.90
14411;DHT22;7290;50.854;4.354;2023-08-08T00:05:42;15.60;99.90
14411;DHT22;7290;50.854;4.354;2023-08-08T00:08:08;15.60;99.90
14411;DHT22;7290;50.854;4.354;2023-08-08T00:10:34;15.60;99.90
14411;DHT22;7290;50.854;4.354;2023-08-08T00:13:01;15.60;99.90
14411;DHT22;7290;50.854;4.354;2023-08-08T00:15:27;15.50;99.90
14411;DHT22;7290;50.854;4.354;2023-08-08T00:17:53;15.40;99.90
14411;DHT22;7290;50.854;4.354;2023-08-08T00:20:19;15.30;99.90
14411;DHT22;7290;50.854;4.354;2023-08-08T00:22:46;15.30;99.90
14411;DHT22;7290;50.854;4.354;2023-08-08T00:25:12;15.40;99.90
14411;DHT22;7290;50.854;4.354;2023-08-08T00:27:38;15.40;99.90
14411;DHT22;7290;50.854;4.354;2023-08-08T00:30:08;15.40;99.90
14411;DHT22;7290;50.854;4.354;2023-08-08T00:32:35;15.30;99.90
14411;DHT22;7290;50.854;4.354;2023-08-08T00:35:01;15.30;99.90
14411;DHT22;7290;50.854;4.354;2023-08-08T00:37:27;15.30;99.90
14411;DHT22;7290;50.854;4.354;2023-08-08T00:39:54;15.40;99.90
14411;DHT22;7290;50.854;4.354;2023-08-08T00:42:20;15.30;99.90
14411;DHT22;7290;50.854;4.354;2023-08-08T00:44:46;15.20;99.90
14411;DHT22;7290;50.854;4.354;2023-08-08T00:47:12;15.20;99.90
14411;DHT22;7290;50.854;4.354;2023-08-08T00:49:38;15.20;99.90
14411;DHT22;7290;50.854;4.354;2023-08-08T00:52:06;15.20;99.90
14411;DHT22;7290;50.854;4.354;2023-08-08T00:54:32;15.10;99.90
14411;DHT22;7290;50.854;4.354;2023-08-08T00:56:59;15.10;99.90
14411;DHT22;7290;50.854;4.354;2023-08-08T00:59:25;15.00;99.90
14411;DHT22;7290;50.854;4.354;2023-08-08T01:01:52;15.00;99.90
14411;DHT22;7290;50.854;4.354;2023-08-08T01:04:19;14.90;99.90
14411;DHT22;7290;50.854;4.354;2023-08-08T01:06:51;14.80;99.90
14411;DHT22;7290;50.854;4.354;2023-08-08T01:09:24;14.80;99.90
14411;DHT22;7290;50.854;4.354;2023-08-08T01:11:54;14.80;99.90
14411;DHT22;7290;50.854;4.354;2023-08-08T01:14:21;14.90;99.90
14411;DHT22;7290;50.854;4.354;2023-08-08T01:16:50;14.90;99.90
14411;DHT22;7290;50.854;4.354;2023-08-08T01:19:25;15.00;99.90
14411;DHT22;7290;50.854;4.354;2023-08-08T01:21:53;14.90;99.90
14411;DHT22;7290;50.854;4.354;2023-08-08T01:24:21;14.90;99.90
14411;DHT22;7290;50.854;4.354;2023-08-08T01:26:48;14.70;99.90
14411;DHT22;7290;50.854;4.354;2023-08-08T01:29:14;14.70;99.90
14411;DHT22;7290;50.854;4.354;2023-08-08T01:31:42;14.70;99.90
14411;DHT22;7290;50.854;4.354;2023-08-08T01:34:08;14.70;99.90
14411;DHT22;7290;50.854;4.354;2023-08-08T01:36:38;14.60;99.90
14411;DHT22;7290;50.854;4.354;2023-08-08T01:39:11;14.60;99.90
14411;DHT22;7290;50.854;4.354;2023-08-08T01:41:39;14.70;99.90
14411;DHT22;7290;50.854;4.354;2023-08-08T01:44:10;14.70;99.90
14411;DHT22;7290;50.854;4.354;2023-08-08T01:46:36;14.70;99.90
14411;DHT22;7290;50.854;4.354;2023-08-08T01:49:04;14.70;99.90
14411;DHT22;7290;50.854;4.354;2023-08-08T01:51:30;14.70;99.90
14411;DHT22;7290;50.854;4.354;2023-08-08T01:53:56;14.70;99.90
14411;DHT22;7290;50.854;4.354;2023-08-08T01:56:22;14.70;99.90
14411;DHT22;7290;50.854;4.354;2023-08-08T01:58:49;14.70;99.90
14411;DHT22;7290;50.854;4.354;2023-08-08T02:01:15;14.80;99.90
14411;DHT22;7290;50.854;4.354;2023-08-08T02:03:41;14.80;99.90
14411;DHT22;7290;50.854;4.354;2023-08-08T02:06:07;14.70;99.90
14411;DHT22;7290;50.854;4.354;2023-08-08T02:08:33;14.70;99.90
14411;DHT22;7290;50.854;4.354;2023-08-08T02:10:59;14.70;99.90
14411;DHT22;7290;50.854;4.354;2023-08-08T02:13:25;14.60;99.90
14411;DHT22;7290;50.854;4.354;2023-08-08T02:15:52;14.50;99.90
14411;DHT22;7290;50.854;4.354;2023-08-08T02:18:18;14.60;99.90
14411;DHT22;7290;50.854;4.354;2023-08-08T02:20:44;14.50;99.90
14411;DHT22;7290;50.854;4.354;2023-08-08T02:23:10;14.50;99.90
14411;DHT22;7290;50.854;4.354;2023-08-08T02:25:36;14.50;99.90
14411;DHT22;7290;50.854;4.354;2023-08-08T02:28:03;14.50;99.90
14411;DHT22;7290;50.854;4.354;2023-08-08T02:30:29;14.50;99.90
14411;DHT22;7290;50.854;4.354;2023-08-08T02:32:56;14.50;99.90
14411;DHT22;7290;50.854;4.354;2023-08-08T02:35:22;14.40;99.90
14411;DHT22;7290;50.854;4.354;2023-08-08T02:37:48;14.30;99.90
14411;DHT22;7290;50.854;4.354;2023-08-08T02:40:14;14.30;99.90
14411;DHT22;7290;50.854;4.354;2023-08-08T02:42:40;14.30;99.90
14411;DHT22;7290;50.854;4.354;2023-08-08T02:45:07;14.30;99.90
14411;DHT22;7290;50.854;4.354;2023-08-08T02:47:33;14.30;99.90
14411;DHT22;7290;50.854;4.354;2023-08-08T02:50:00;14.30;99.90
14411;DHT22;7290;50.854;4.354;2023-08-08T02:52:26;14.40;99.90
14411;DHT22;7290;50.854;4.354;2023-08-08T02:54:52;14.40;99.90
14411;DHT22;7290;50.854;4.354;2023-08-08T02:57:18;14.40;99.90
14411;DHT22;7290;50.854;4.354;2023-08-08T02:59:44;14.50;99.90
14411;DHT22;7290;50.854;4.354;2023-08-08T03:02:10;14.60;99.90
14411;DHT22;7290;50.854;4.354;2023-08-08T03:04:37;14.50;99.90
14411;DHT22;7290;50.854;4.354;2023-08-08T03:07:04;14.40;99.90
14411;DHT22;7290;50.854;4.354;2023-08-08T03:09:30;14.40;99.90
14411;DHT22;7290;50.854;4.354;2023-08-08T03:11:56;14.40;99.90
14411;DHT22;7290;50.854;4.354;2023-08-08T03:14:22;14.30;99.90
14411;DHT22;7290;50.854;4.354;2023-08-08T03:16:48;14.20;99.90
14411;DHT22;7290;50.854;4.354;2023-08-08T03:19:14;14.20;99.90
14411;DHT22;7290;50.854;4.354;2023-08-08T03:21:40;14.20;99.90
14411;DHT22;7290;50.854;4.354;2023-08-08T03:24:07;14.20;99.90
14411;DHT22;7290;50.854;4.354;2023-08-08T03:26:33;14.20;99.90
14411;DHT22;7290;50.854;4.354;2023-08-08T03:28:59;14.10;99.90
14411;DHT22;7290;50.854;4.354;2023-08-08T03:31:25;14.10;99.90
14411;DHT22;7290;50.854;4.354;2023-08-08T03:33:52;14.10;99.90
14411;DHT22;7290;50.854;4.354;2023-08-08T03:36:18;14.10;99.90
14411;DHT22;7290;50.854;4.354;2023-08-08T03:38:45;14.00;99.90
14411;DHT22;7290;50.854;4.354;2023-08-08T03:41:12;14.00;99.90
14411;DHT22;7290;50.854;4.354;2023-08-08T03:43:39;14.10;99.90
14411;DHT22;7290;50.854;4.354;2023-08-08T03:46:05;14.20;99.90
14411;DHT22;7290;50.854;4.354;2023-08-08T03:48:32;14.20;99.90
14411;DHT22;7290;50.854;4.354;2023-08-08T03:50:58;14.20;99.90
14411;DHT22;7290;50.854;4.354;2023-08-08T03:53:24;14.20;99.90
14411;DHT22;7290;50.854;4.354;2023-08-08T03:55:50;14.10;99.90
14411;DHT22;7290;50.854;4.354;2023-08-08T03:58:17;14.10;99.90
14411;DHT22;7290;50.854;4.354;2023-08-08T04:00:43;14.10;99.90
14411;DHT22;7290;50.854;4.354;2023-08-08T04:03:12;14.10;99.90
14411;DHT22;7290;50.854;4.354;2023-08-08T04:05:38;14.00;99.90
14411;DHT22;7290;50.854;4.354;2023-08-08T04:08:05;14.00;99.90
14411;DHT22;7290;50.854;4.354;2023-08-08T04:10:31;14.00;99.90
14411;DHT22;7290;50.854;4.354;2023-08-08T04:12:57;13.90;99.90
14411;DHT22;7290;50.854;4.354;2023-08-08T04:15:24;14.00;99.90
14411;DHT22;7290;50.854;4.354;2023-08-08T04:17:50;14.00;99.90
14411;DHT22;7290;50.854;4.354;2023-08-08T04:20:16;14.00;99.90
14411;DHT22;7290;50.854;4.354;2023-08-08T04:22:42;14.10;99.90
14411;DHT22;7290;50.854;4.354;2023-08-08T04:25:08;14.10;99.90
14411;DHT22;7290;50.854;4.354;2023-08-08T04:27:35;14.00;99.90
14411;DHT22;7290;50.854;4.354;2023-08-08T04:30:01;14.10;99.90
14411;DHT22;7290;50.854;4.354;2023-08-08T04:32:29;14.10;99.90
14411;DHT22;7290;50.854;4.354;2023-08-08T04:34:55;14.10;99.90
14411;DHT22;7290;50.854;4.354;2023-08-08T04:37:21;14.10;99.90
14411;DHT22;7290;50.854;4.354;2023-08-08T04:39:47;14.00;99.90
14411;DHT22;7290;50.854;4.354;2023-08-08T04:42:13;14.00;99.90
14411;DHT22;7290;50.854;4.354;2023-08-08T04:44:39;14.00;99.90
14411;DHT22;7290;50.854;4.354;2023-08-08T04:47:05;14.00;99.90
14411;DHT22;7290;50.854;4.354;2023-08-08T04:49:32;14.10;99.90
14411;DHT22;7290;50.854;4.354;2023-08-08T04:51:58;14.30;99.90
14411;DHT22;7290;50.854;4.354;2023-08-08T04:54:24;14.30;99.90
14411;DHT22;7290;50.854;4.354;2023-08-08T04:56:50;14.30;99.90
14411;DHT22;7290;50.854;4.354;2023-08-08T04:59:16;14.30;99.90
14411;DHT22;7290;50.854;4.354;2023-08-08T05:01:42;14.20;99.90
14411;DHT22;7290;50.854;4.354;2023-08-08T05:04:08;14.30;99.90
14411;DHT22;7290;50.854;4.354;2023-08-08T05:06:35;14.30;99.90
14411;DHT22;7290;50.854;4.354;2023-08-08T05:09:01;14.30;99.90
14411;DHT22;7290;50.854;4.354;2023-08-08T05:11:27;14.30;99.90
14411;DHT22;7290;50.854;4.354;2023-08-08T05:13:53;14.30;99.90
14411;DHT22;7290;50.854;4.354;2023-08-08T05:16:19;14.40;99.90
14411;DHT22;7290;50.854;4.354;2023-08-08T05:18:46;14.60;99.90
14411;DHT22;7290;50.854;4.354;2023-08-08T05:21:12;14.60;99.90
14411;DHT22;7290;50.854;4.354;2023-08-08T05:23:38;14.60;99.90
14411;DHT22;7290;50.854;4.354;2023-08-08T05:26:04;14.80;99.90
14411;DHT22;7290;50.854;4.354;2023-08-08T05:28:31;14.70;99.90
14411;DHT22;7290;50.854;4.354;2023-08-08T05:30:57;14.80;99.90
14411;DHT22;7290;50.854;4.354;2023-08-08T05:33:24;14.80;99.90
14411;DHT22;7290;50.854;4.354;2023-08-08T05:35:50;14.80;99.90
14411;DHT22;7290;50.854;4.354;2023-08-08T05:38:17;15.00;99.90
14411;DHT22;7290;50.854;4.354;2023-08-08T05:40:43;15.20;99.90
14411;DHT22;7290;50.854;4.354;2023-08-08T05:43:09;15.30;99.90
14411;DHT22;7290;50.854;4.354;2023-08-08T05:45:35;15.40;99.90
14411;DHT22;7290;50.854;4.354;2023-08-08T05:48:02;15.80;99.90
14411;DHT22;7290;50.854;4.354;2023-08-08T05:50:28;15.80;99.90
14411;DHT22;7290;50.854;4.354;2023-08-08T05:52:54;15.60;99.90
14411;DHT22;7290;50.854;4.354;2023-08-08T05:55:20;15.40;99.90
14411;DHT22;7290;50.854;4.354;2023-08-08T05:57:47;15.30;99.90
14411;DHT22;7290;50.854;4.354;2023-08-08T06:00:14;15.10;99.90
14411;DHT22;7290;50.854;4.354;2023-08-08T06:02:40;15.00;99.90
14411;DHT22;7290;50.854;4.354;2023-08-08T06:05:08;15.10;99.90
14411;DHT22;7290;50.854;4.354;2023-08-08T06:07:34;15.10;99.90
14411;DHT22;7290;50.854;4.354;2023-08-08T06:10:00;15.30;99.90
14411;DHT22;7290;50.854;4.354;2023-08-08T06:12:26;15.60;99.90
14411;DHT22;7290;50.854;4.354;2023-08-08T06:14:53;16.30;99.90
14411;DHT22;7290;50.854;4.354;2023-08-08T06:17:20;17.00;99.90
14411;DHT22;7290;50.854;4.354;2023-08-08T06:19:46;17.90;99.90
14411;DHT22;7290;50.854;4.354;2023-08-08T06:22:12;18.00;99.90
14411;DHT22;7290;50.854;4.354;2023-08-08T06:24:38;18.00;99.90
14411;DHT22;7290;50.854;4.354;2023-08-08T06:27:04;18.10;99.90
14411;DHT22;7290;50.854;4.354;2023-08-08T06:29:30;18.90;99.90
14411;DHT22;7290;50.854;4.354;2023-08-08T06:31:57;18.40;99.90
14411;DHT22;7290;50.854;4.354;2023-08-08T06:34:23;18.50;99.90
14411;DHT22;7290;50.854;4.354;2023-08-08T06:36:49;18.40;99.90
14411;DHT22;7290;50.854;4.354;2023-08-08T06:39:15;18.50;99.90
14411;DHT22;7290;50.854;4.354;2023-08-08T06:41:42;18.40;99.90
14411;DHT22;7290;50.854;4.354;2023-08-08T06:44:08;18.00;99.90
14411;DHT22;7290;50.854;4.354;2023-08-08T06:46:34;17.60;99.90
14411;DHT22;7290;50.854;4.354;2023-08-08T06:49:01;17.40;99.90
14411;DHT22;7290;50.854;4.354;2023-08-08T06:51:27;17.50;99.90
14411;DHT22;7290;50.854;4.354;2023-08-08T06:53:53;17.50;99.90
14411;DHT22;7290;50.854;4.354;2023-08-08T06:56:19;17.60;99.90
14411;DHT22;7290;50.854;4.354;2023-08-08T06:58:46;17.40;99.90
14411;DHT22;7290;50.854;4.354;2023-08-08T07:01:12;17.70;99.90
14411;DHT22;7290;50.854;4.354;2023-08-08T07:03:38;17.80;99.90
14411;DHT22;7290;50.854;4.354;2023-08-08T07:06:05;18.00;99.90
14411;DHT22;7290;50.854;4.354;2023-08-08T07:08:31;17.90;99.90
14411;DHT22;7290;50.854;4.354;2023-08-08T07:10:58;18.00;99.90
14411;DHT22;7290;50.854;4.354;2023-08-08T07:13:24;18.10;99.90
14411;DHT22;7290;50.854;4.354;2023-08-08T07:15:50;18.00;99.90
14411;DHT22;7290;50.854;4.354;2023-08-08T07:18:16;17.60;99.90
14411;DHT22;7290;50.854;4.354;2023-08-08T07:20:42;17.90;99.90
14411;DHT22;7290;50.854;4.354;2023-08-08T07:23:10;17.80;99.90
14411;DHT22;7290;50.854;4.354;2023-08-08T07:25:36;18.00;99.90
14411;DHT22;7290;50.854;4.354;2023-08-08T07:28:02;17.80;99.90
14411;DHT22;7290;50.854;4.354;2023-08-08T07:30:28;17.70;99.90
14411;DHT22;7290;50.854;4.354;2023-08-08T07:32:54;17.70;99.90
14411;DHT22;7290;50.854;4.354;2023-08-08T07:35:20;17.50;99.90
14411;DHT22;7290;50.854;4.354;2023-08-08T07:37:47;17.40;99.90
14411;DHT22;7290;50.854;4.354;2023-08-08T07:40:14;17.40;99.90
14411;DHT22;7290;50.854;4.354;2023-08-08T07:42:40;17.50;99.90
14411;DHT22;7290;50.854;4.354;2023-08-08T07:45:07;17.80;99.90
14411;DHT22;7290;50.854;4.354;2023-08-08T07:47:33;17.80;99.90
14411;DHT22;7290;50.854;4.354;2023-08-08T07:49:59;17.90;99.90
14411;DHT22;7290;50.854;4.354;2023-08-08T07:52:26;18.20;99.90
14411;DHT22;7290;50.854;4.354;2023-08-08T07:54:52;18.40;99.90
14411;DHT22;7290;50.854;4.354;2023-08-08T07:57:19;18.30;99.90
14411;DHT22;7290;50.854;4.354;2023-08-08T07:59:45;18.10;99.90
14411;DHT22;7290;50.854;4.354;2023-08-08T08:02:11;18.20;99.90
14411;DHT22;7290;50.854;4.354;2023-08-08T08:04:37;18.30;99.90
14411;DHT22;7290;50.854;4.354;2023-08-08T08:07:03;18.50;99.90
14411;DHT22;7290;50.854;4.354;2023-08-08T08:09:30;18.40;99.90
14411;DHT22;7290;50.854;4.354;2023-08-08T08:11:56;18.60;99.90
14411;DHT22;7290;50.854;4.354;2023-08-08T08:14:22;18.90;99.90
14411;DHT22;7290;50.854;4.354;2023-08-08T08:16:50;18.40;99.90
14411;DHT22;7290;50.854;4.354;2023-08-08T08:19:16;18.30;99.90
14411;DHT22;7290;50.854;4.354;2023-08-08T08:21:42;18.30;99.90
14411;DHT22;7290;50.854;4.354;2023-08-08T08:24:08;18.20;99.90
14411;DHT22;7290;50.854;4.354;2023-08-08T08:29:02;18.10;99.90
14411;DHT22;7290;50.854;4.354;2023-08-08T08:31:28;18.00;99.90
14411;DHT22;7290;50.854;4.354;2023-08-08T08:33:55;18.20;99.90
14411;DHT22;7290;50.854;4.354;2023-08-08T08:36:21;18.50;99.90
14411;DHT22;7290;50.854;4.354;2023-08-08T08:38:47;18.60;99.90
14411;DHT22;7290;50.854;4.354;2023-08-08T08:41:17;18.80;99.90
14411;DHT22;7290;50.854;4.354;2023-08-08T08:43:45;18.50;99.90
14411;DHT22;7290;50.854;4.354;2023-08-08T08:46:13;18.80;99.90
14411;DHT22;7290;50.854;4.354;2023-08-08T08:48:41;19.10;99.90
14411;DHT22;7290;50.854;4.354;2023-08-08T08:51:08;19.30;99.90
14411;DHT22;7290;50.854;4.354;2023-08-08T08:53:34;19.30;99.90
14411;DHT22;7290;50.854;4.354;2023-08-08T08:56:05;19.20;99.90
14411;DHT22;7290;50.854;4.354;2023-08-08T08:58:31;19.20;99.90
14411;DHT22;7290;50.854;4.354;2023-08-08T09:00:58;19.30;99.90
14411;DHT22;7290;50.854;4.354;2023-08-08T09:03:24;19.40;99.90
14411;DHT22;7290;50.854;4.354;2023-08-08T09:05:52;19.70;99.90
14411;DHT22;7290;50.854;4.354;2023-08-08T09:08:22;19.90;99.90
14411;DHT22;7290;50.854;4.354;2023-08-08T09:10:49;19.80;99.90
14411;DHT22;7290;50.854;4.354;2023-08-08T09:13:18;20.20;99.90
14411;DHT22;7290;50.854;4.354;2023-08-08T09:15:47;20.70;99.90
14411;DHT22;7290;50.854;4.354;2023-08-08T09:18:14;20.60;99.90
14411;DHT22;7290;50.854;4.354;2023-08-08T09:20:40;20.30;99.90
14411;DHT22;7290;50.854;4.354;2023-08-08T09:23:09;20.60;99.90
14411;DHT22;7290;50.854;4.354;2023-08-08T09:25:35;20.30;99.90
14411;DHT22;7290;50.854;4.354;2023-08-08T09:28:02;21.00;99.90
14411;DHT22;7290;50.854;4.354;2023-08-08T09:30:28;21.40;99.90
14411;DHT22;7290;50.854;4.354;2023-08-08T09:32:58;21.90;99.90
14411;DHT22;7290;50.854;4.354;2023-08-08T09:35:26;22.20;99.90
14411;DHT22;7290;50.854;4.354;2023-08-08T09:37:55;22.30;99.90
14411;DHT22;7290;50.854;4.354;2023-08-08T09:40:23;22.90;99.90
14411;DHT22;7290;50.854;4.354;2023-08-08T09:42:51;22.50;99.90
14411;DHT22;7290;50.854;4.354;2023-08-08T09:45:18;22.30;99.90
14411;DHT22;7290;50.854;4.354;2023-08-08T09:47:45;22.10;99.90
14411;DHT22;7290;50.854;4.354;2023-08-08T09:50:12;22.30;99.90
14411;DHT22;7290;50.854;4.354;2023-08-08T09:52:38;22.30;99.90
14411;DHT22;7290;50.854;4.354;2023-08-08T09:55:05;22.20;99.90
14411;DHT22;7290;50.854;4.354;2023-08-08T09:57:33;22.00;99.90
14411;DHT22;7290;50.854;4.354;2023-08-08T09:59:59;21.70;99.90
14411;DHT22;7290;50.854;4.354;2023-08-08T10:02:27;21.70;99.90
14411;DHT22;7290;50.854;4.354;2023-08-08T10:04:55;21.30;99.90
14411;DHT22;7290;50.854;4.354;2023-08-08T10:07:23;20.90;99.90
14411;DHT22;7290;50.854;4.354;2023-08-08T10:09:50;20.70;99.90
14411;DHT22;7290;50.854;4.354;2023-08-08T10:12:17;20.30;99.90
14411;DHT22;7290;50.854;4.354;2023-08-08T10:14:45;20.10;99.90
14411;DHT22;7290;50.854;4.354;2023-08-08T10:17:14;20.20;99.90
14411;DHT22;7290;50.854;4.354;2023-08-08T10:19:50;20.30;99.90
14411;DHT22;7290;50.854;4.354;2023-08-08T10:22:20;20.40;99.90
14411;DHT22;7290;50.854;4.354;2023-08-08T10:24:47;20.40;99.90
14411;DHT22;7290;50.854;4.354;2023-08-08T10:27:15;20.50;99.90
14411;DHT22;7290;50.854;4.354;2023-08-08T10:30:09;20.50;99.90
14411;DHT22;7290;50.854;4.354;2023-08-08T10:32:40;20.00;99.90
14411;DHT22;7290;50.854;4.354;2023-08-08T10:35:08;19.70;99.90
14411;DHT22;7290;50.854;4.354;2023-08-08T10:37:35;19.80;99.90
14411;DHT22;7290;50.854;4.354;2023-08-08T10:40:02;20.10;99.90
14411;DHT22;7290;50.854;4.354;2023-08-08T10:42:31;20.30;99.90
14411;DHT22;7290;50.854;4.354;2023-08-08T10:44:59;20.10;99.90
14411;DHT22;7290;50.854;4.354;2023-08-08T10:47:33;19.90;99.90
14411;DHT22;7290;50.854;4.354;2023-08-08T10:50:02;19.90;99.90
14411;DHT22;7290;50.854;4.354;2023-08-08T10:52:29;19.90;99.90
14411;DHT22;7290;50.854;4.354;2023-08-08T10:54:56;20.00;99.90
14411;DHT22;7290;50.854;4.354;2023-08-08T10:57:25;19.80;99.90
14411;DHT22;7290;50.854;4.354;2023-08-08T10:59:52;19.60;99.90
14411;DHT22;7290;50.854;4.354;2023-08-08T11:02:20;19.50;99.90
14411;DHT22;7290;50.854;4.354;2023-08-08T11:04:48;19.50;99.90
14411;DHT22;7290;50.854;4.354;2023-08-08T11:07:16;19.60;99.90
14411;DHT22;7290;50.854;4.354;2023-08-08T11:09:43;19.80;99.90
14411;DHT22;7290;50.854;4.354;2023-08-08T11:12:15;20.30;99.90
14411;DHT22;7290;50.854;4.354;2023-08-08T11:14:42;21.00;99.90
14411;DHT22;7290;50.854;4.354;2023-08-08T11:17:10;22.00;99.90
14411;DHT22;7290;50.854;4.354;2023-08-08T11:19:39;22.00;99.90
14411;DHT22;7290;50.854;4.354;2023-08-08T11:22:09;21.90;99.90
14411;DHT22;7290;50.854;4.354;2023-08-08T11:24:36;21.80;99.90
14411;DHT22;7290;50.854;4.354;2023-08-08T11:27:03;21.70;99.90
14411;DHT22;7290;50.854;4.354;2023-08-08T11:29:29;21.70;99.90
14411;DHT22;7290;50.854;4.354;2023-08-08T11:32:00;22.00;99.90
14411;DHT22;7290;50.854;4.354;2023-08-08T11:34:30;21.90;99.90
14411;DHT22;7290;50.854;4.354;2023-08-08T11:36:58;22.10;99.90
14411;DHT22;7290;50.854;4.354;2023-08-08T11:39:26;21.50;99.90
14411;DHT22;7290;50.854;4.354;2023-08-08T11:41:52;20.90;99.90
14411;DHT22;7290;50.854;4.354;2023-08-08T11:44:19;20.90;99.90
14411;DHT22;7290;50.854;4.354;2023-08-08T11:46:49;20.90;99.90
14411;DHT22;7290;50.854;4.354;2023-08-08T11:49:16;20.90;99.90
14411;DHT22;7290;50.854;4.354;2023-08-08T11:51:44;20.70;99.90
14411;DHT22;7290;50.854;4.354;2023-08-08T11:54:11;20.40;99.90
14411;DHT22;7290;50.854;4.354;2023-08-08T11:56:38;20.50;99.90
14411;DHT22;7290;50.854;4.354;2023-08-08T11:59:05;20.70;99.90
14411;DHT22;7290;50.854;4.354;2023-08-08T12:01:33;20.90;99.90
14411;DHT22;7290;50.854;4.354;2023-08-08T12:04:04;21.20;99.90
14411;DHT22;7290;50.854;4.354;2023-08-08T12:06:31;21.70;99.90
14411;DHT22;7290;50.854;4.354;2023-08-08T12:08:57;21.60;99.90
14411;DHT22;7290;50.854;4.354;2023-08-08T12:11:23;21.50;99.90
14411;DHT22;7290;50.854;4.354;2023-08-08T12:13:50;21.30;99.90
14411;DHT22;7290;50.854;4.354;2023-08-08T12:16:16;21.60;99.90
14411;DHT22;7290;50.854;4.354;2023-08-08T12:18:43;22.00;99.90
14411;DHT22;7290;50.854;4.354;2023-08-08T12:21:11;22.40;99.90
14411;DHT22;7290;50.854;4.354;2023-08-08T12:23:37;22.50;99.90
14411;DHT22;7290;50.854;4.354;2023-08-08T12:26:04;22.20;99.90
14411;DHT22;7290;50.854;4.354;2023-08-08T12:28:31;22.30;99.90
14411;DHT22;7290;50.854;4.354;2023-08-08T12:30:58;22.40;99.90
14411;DHT22;7290;50.854;4.354;2023-08-08T12:33:25;22.40;99.90
14411;DHT22;7290;50.854;4.354;2023-08-08T12:35:51;22.50;99.90
14411;DHT22;7290;50.854;4.354;2023-08-08T12:38:19;22.80;99.90
14411;DHT22;7290;50.854;4.354;2023-08-08T12:40:45;22.90;99.90
14411;DHT22;7290;50.854;4.354;2023-08-08T12:43:12;23.20;99.90
14411;DHT22;7290;50.854;4.354;2023-08-08T12:45:42;22.90;99.90
14411;DHT22;7290;50.854;4.354;2023-08-08T12:48:10;23.20;99.90
14411;DHT22;7290;50.854;4.354;2023-08-08T12:50:37;22.40;99.90
14411;DHT22;7290;50.854;4.354;2023-08-08T12:53:03;21.90;99.90
14411;DHT22;7290;50.854;4.354;2023-08-08T12:55:31;22.10;99.90
14411;DHT22;7290;50.854;4.354;2023-08-08T12:57:57;21.90;99.90
14411;DHT22;7290;50.854;4.354;2023-08-08T13:00:24;22.00;99.90
14411;DHT22;7290;50.854;4.354;2023-08-08T13:02:50;21.90;99.90
14411;DHT22;7290;50.854;4.354;2023-08-08T13:05:17;21.70;99.90
14411;DHT22;7290;50.854;4.354;2023-08-08T13:07:43;21.80;99.90
14411;DHT22;7290;50.854;4.354;2023-08-08T13:10:10;22.00;99.90
14411;DHT22;7290;50.854;4.354;2023-08-08T13:12:36;21.90;99.90
14411;DHT22;7290;50.854;4.354;2023-08-08T13:15:03;22.20;99.90
14411;DHT22;7290;50.854;4.354;2023-08-08T13:17:30;22.60;99.90
14411;DHT22;7290;50.854;4.354;2023-08-08T13:19:57;22.00;99.90
14411;DHT22;7290;50.854;4.354;2023-08-08T13:22:24;22.10;99.90
14411;DHT22;7290;50.854;4.354;2023-08-08T13:24:50;22.20;99.90
14411;DHT22;7290;50.854;4.354;2023-08-08T13:27:16;21.90;99.90
14411;DHT22;7290;50.854;4.354;2023-08-08T13:29:43;21.70;99.90
14411;DHT22;7290;50.854;4.354;2023-08-08T13:32:09;21.90;99.90
14411;DHT22;7290;50.854;4.354;2023-08-08T13:34:36;22.00;99.90
14411;DHT22;7290;50.854;4.354;2023-08-08T13:37:02;22.20;99.90
14411;DHT22;7290;50.854;4.354;2023-08-08T13:39:29;22.30;99.90
14411;DHT22;7290;50.854;4.354;2023-08-08T13:41:56;22.30;99.90
14411;DHT22;7290;50.854;4.354;2023-08-08T13:44:22;22.40;99.90
14411;DHT22;7290;50.854;4.354;2023-08-08T13:46:48;22.20;99.90
14411;DHT22;7290;50.854;4.354;2023-08-08T13:49:17;22.30;99.90
14411;DHT22;7290;50.854;4.354;2023-08-08T13:51:43;22.20;99.90
14411;DHT22;7290;50.854;4.354;2023-08-08T13:54:09;22.40;99.90
14411;DHT22;7290;50.854;4.354;2023-08-08T13:56:36;22.30;99.90
14411;DHT22;7290;50.854;4.354;2023-08-08T13:59:03;22.30;99.90
14411;DHT22;7290;50.854;4.354;2023-08-08T14:01:30;22.40;99.90
14411;DHT22;7290;50.854;4.354;2023-08-08T14:03:56;22.50;99.90
14411;DHT22;7290;50.854;4.354;2023-08-08T14:06:22;22.30;99.90
14411;DHT22;7290;50.854;4.354;2023-08-08T14:08:49;22.30;99.90
14411;DHT22;7290;50.854;4.354;2023-08-08T14:11:17;22.40;99.90
14411;DHT22;7290;50.854;4.354;2023-08-08T14:13:44;22.30;99.90
14411;DHT22;7290;50.854;4.354;2023-08-08T14:16:11;21.90;99.90
14411;DHT22;7290;50.854;4.354;2023-08-08T14:18:37;21.60;99.90
14411;DHT22;7290;50.854;4.354;2023-08-08T14:21:04;21.40;99.90
14411;DHT22;7290;50.854;4.354;2023-08-08T14:23:31;21.10;99.90
14411;DHT22;7290;50.854;4.354;2023-08-08T14:25:57;21.10;99.90
14411;DHT22;7290;50.854;4.354;2023-08-08T14:28:24;21.00;99.90
14411;DHT22;7290;50.854;4.354;2023-08-08T14:30:53;21.00;99.90
14411;DHT22;7290;50.854;4.354;2023-08-08T14:33:20;21.00;99.90
14411;DHT22;7290;50.854;4.354;2023-08-08T14:35:46;21.00;99.90
14411;DHT22;7290;50.854;4.354;2023-08-08T14:38:13;20.90;99.90
14411;DHT22;7290;50.854;4.354;2023-08-08T14:40:40;20.80;99.90
14411;DHT22;7290;50.854;4.354;2023-08-08T14:43:06;20.80;99.90
14411;DHT22;7290;50.854;4.354;2023-08-08T14:45:36;20.70;99.90
14411;DHT22;7290;50.854;4.354;2023-08-08T14:48:04;20.80;99.90
14411;DHT22;7290;50.854;4.354;2023-08-08T14:50:30;20.70;99.90
14411;DHT22;7290;50.854;4.354;2023-08-08T14:53:00;20.80;99.90
14411;DHT22;7290;50.854;4.354;2023-08-08T14:55:26;21.00;99.90
14411;DHT22;7290;50.854;4.354;2023-08-08T14:57:52;20.90;99.90
14411;DHT22;7290;50.854;4.354;2023-08-08T15:00:19;20.90;99.90
14411;DHT22;7290;50.854;4.354;2023-08-08T15:02:45;20.80;99.90
14411;DHT22;7290;50.854;4.354;2023-08-08T15:05:12;20.90;99.90
14411;DHT22;7290;50.854;4.354;2023-08-08T15:07:39;21.00;99.90
14411;DHT22;7290;50.854;4.354;2023-08-08T15:10:07;20.90;99.90
14411;DHT22;7290;50.854;4.354;2023-08-08T15:12:33;20.70;99.90
14411;DHT22;7290;50.854;4.354;2023-08-08T15:14:59;20.60;99.90
14411;DHT22;7290;50.854;4.354;2023-08-08T15:17:25;20.70;99.90
14411;DHT22;7290;50.854;4.354;2023-08-08T15:19:51;20.90;99.90
14411;DHT22;7290;50.854;4.354;2023-08-08T15:22:18;20.90;99.90
14411;DHT22;7290;50.854;4.354;2023-08-08T15:24:45;21.10;99.90
14411;DHT22;7290;50.854;4.354;2023-08-08T15:27:11;20.90;99.90
14411;DHT22;7290;50.854;4.354;2023-08-08T15:29:37;20.60;99.90
14411;DHT22;7290;50.854;4.354;2023-08-08T15:32:04;20.40;99.90
14411;DHT22;7290;50.854;4.354;2023-08-08T15:34:32;20.40;99.90
14411;DHT22;7290;50.854;4.354;2023-08-08T15:36:58;20.60;99.90
14411;DHT22;7290;50.854;4.354;2023-08-08T15:39:27;20.40;99.90
14411;DHT22;7290;50.854;4.354;2023-08-08T15:41:54;20.20;99.90
14411;DHT22;7290;50.854;4.354;2023-08-08T15:44:20;20.20;99.90